• Join FlightAware (Why Join?)
  • Login
  • US Flag 
12:57PM EDT


 

Airport Tracker/Info


-or-


 

Live Flight TrackerFlight Track Log ✈ N631AW ✈ 04-May-2013 ✈ KPHX - KATL

Flight Track Log - Related Links

Times and Time Zones

All times are in EDT time to prevent confusion due to time zone crossing. See the N631AW flight status page for this flight to view local times or setup timezone preferences in your user account.

Time Position Orientation Groundspeed Altitude Reporting Facility
EDT Latitude Longitude Course Direction KTS MPH feet Rate Location/Type
06:29PM 33.4333 -112.0333 82° East 199 229 1,700  Level Phoenix TRACON
06:30PM 33.4167 -112.0667 239° Southwest 182 209 2,800 1,140 Climbing Phoenix TRACON
06:31PM 33.4047 -112.1267 257° West 219 252 3,700 1,680 Climbing Albuquerque Center
06:32PM 33.4725 -111.5454 79° East  Level FlightAware Approximate
06:32PM 33.3606 -112.1775 224° Southwest 253 291 6,100  Level Albuquerque Center
06:33PM 33.4962 -111.3917 80° East  Level FlightAware Approximate
06:33PM 33.3150 -112.1122 130° Southeast 295 339 8,500  Level Albuquerque Center
06:34PM 33.5144 -111.2369 82° East  Level FlightAware Approximate
06:34PM 33.3386 -112.0189 73° East 298 343 11,100  Level Albuquerque Center
06:35PM 33.3644 -111.9189 73° East 314 361 13,500 1,620 Climbing Albuquerque Center
06:36PM 33.3931 -111.8053 73° East 363 418 14,400 1,560 Climbing Albuquerque Center
06:37PM 33.4319 -111.6539 73° East 397 457 16,700 2,040 Climbing Albuquerque Center
06:38PM 33.4656 -111.5236 73° East 411 473 18,700 1,800 Climbing Albuquerque Center
06:39PM 33.5000 -111.3883 73° East 425 489 20,400 1,560 Climbing Albuquerque Center
06:40PM 33.5186 -111.2383 81° East 443 510 22,000 1,440 Climbing Albuquerque Center
06:41PM 33.5336 -111.0947 83° East 450 518 23,400 1,200 Climbing Albuquerque Center
06:42PM 33.5503 -110.9417 83° East 461 531 24,500 1,080 Climbing Albuquerque Center
06:43PM 33.5742 -110.7878 79° East 466 536 25,700 1,140 Climbing Albuquerque Center
06:44PM 33.5856 -110.5944 86° East 481 554 26,900 1,080 Climbing Albuquerque Center
06:45PM 33.5953 -110.4325 86° East 485 558 28,000 960 Climbing Albuquerque Center
06:46PM 33.6028 -110.2692 87° East 494 568 28,900 780 Climbing Albuquerque Center
06:47PM 33.6125 -110.1028 86° East 500 575 29,700 780 Climbing Albuquerque Center
06:48PM 33.6225 -109.9339 86° East 509 586 30,600 900 Climbing Albuquerque Center
06:49PM 33.6322 -109.7661 86° East 509 586 31,600 900 Climbing Albuquerque Center
06:50PM 33.6419 -109.5994 86° East 505 581 32,500 960 Climbing Albuquerque Center
06:51PM 33.6511 -109.3989 87° East 504 580 33,600 840 Climbing Albuquerque Center
06:52PM 33.6603 -109.2331 86° East 502 578 34,300 780 Climbing Albuquerque Center
06:53PM 33.6678 -109.0669 87° East 500 575 35,200 720 Climbing Albuquerque Center
06:54PM 33.6758 -108.9033 87° East 496 571 35,800 720 Climbing Albuquerque Center
06:55PM 33.6833 -108.7383 87° East 496 571 36,700 540 Climbing Albuquerque Center
06:56PM 33.6900 -108.5769 87° East 491 565 37,000 120 Climbing Albuquerque Center
06:57PM 33.6972 -108.4136 87° East 490 564 37,000  Level Albuquerque Center
06:58PM 33.7031 -108.2500 88° East 493 567 37,000 -60 Level Albuquerque Center
06:59PM 33.7108 -108.0603 87° East 492 566 36,900  Descending Albuquerque Center
07:00PM 33.7169 -107.8958 87° East 492 566 37,000  Climbing Albuquerque Center
07:01PM 33.7231 -107.7300 87° East 495 570 37,000  Level Albuquerque Center
07:02PM 33.7294 -107.5650 87° East 494 568 37,000  Level Albuquerque Center
07:03PM 33.7353 -107.4031 87° East 489 563 37,000  Level Albuquerque Center
07:04PM 33.7406 -107.2436 88° East 481 554 37,000 -60 Level Albuquerque Center
07:05PM 33.7461 -107.0822 88° East 482 555 36,900 -60 Descending Albuquerque Center
07:06PM 33.7511 -106.9189 88° East 486 559 36,900  Level Albuquerque Center
07:07PM 33.7558 -106.7536 88° East 489 563 36,900  Level Albuquerque Center
07:09PM 33.7606 -106.5886 88° East 492 566 37,000  Climbing Albuquerque Center
07:10PM 33.7658 -106.3908 88° East 493 567 37,000  Level Albuquerque Center
07:11PM 33.7703 -106.2261 88° East 494 568 37,000  Level Albuquerque Center
07:12PM 33.7750 -106.0625 88° East 491 565 37,000  Level Albuquerque Center
07:13PM 33.7789 -105.8947 88° East 489 563 37,100  Climbing Albuquerque Center
07:14PM 33.7819 -105.7311 89° East 487 560 37,000 -60 Descending Albuquerque Center
07:15PM 33.7858 -105.5706 88° East 483 556 37,000  Level Albuquerque Center
07:16PM 33.7883 -105.4100 89° East 479 551 37,000  Level Albuquerque Center
07:17PM 33.7906 -105.2317 89° East 483 556 37,000  Level Albuquerque Center
07:18PM 33.7928 -105.0700 89° East 484 557 37,000  Level Albuquerque Center
07:19PM 33.7956 -104.9097 89° East 481 554 37,000  Level Albuquerque Center
07:20PM 33.7978 -104.7489 89° East 482 555 37,000  Level Albuquerque Center
07:21PM 33.8000 -104.5747 89° East 484 557 37,000  Level Albuquerque Center
07:22PM 33.8025 -104.4133 89° East 482 555 37,000  Level Albuquerque Center
07:23PM 33.8042 -104.2514 89° East 484 557 37,000  Level Albuquerque Center
07:24PM 33.8056 -104.0908 89° East 482 555 37,000  Level Albuquerque Center
07:25PM 33.8081 -103.9178 89° East 481 554 37,000  Level Albuquerque Center
07:26PM 33.8092 -103.7564 89° East 481 554 37,000  Level Albuquerque Center
07:27PM 33.8081 -103.5969 90° East 485 558 37,000  Level Albuquerque Center
07:28PM 33.8089 -103.4347 90° East 488 562 37,000  Level Albuquerque Center
07:29PM 33.8103 -103.2708 89° East 488 562 37,000  Level Albuquerque Center
07:30PM 33.8108 -103.1086 90° East 486 559 37,000  Level Albuquerque Center
07:31PM 33.8092 -102.9492 91° East 483 556 37,000  Level Albuquerque Center
07:32PM 33.8097 -102.7853 90° East 487 560 37,000  Level Albuquerque Center
07:33PM 33.8089 -102.6028 90° East 490 564 37,000  Level Fort Worth Center
07:34PM 33.8072 -102.4453 91° East 484 557 37,000  Level Fort Worth Center
07:35PM 33.8072 -102.2803 90° East 479 551 37,000  Level Fort Worth Center
07:36PM 33.8072 -102.1203 90° East 479 551 37,000  Level Fort Worth Center
07:37PM 33.8064 -101.9728 90° East 479 551 37,000  Level Fort Worth Center
07:38PM 33.8061 -101.8078 90° East 487 560 37,000  Level Fort Worth Center
07:39PM 33.8019 -101.6250 92° East 494 568 37,000  Level Fort Worth Center
07:40PM 33.8006 -101.4800 91° East 499 574 37,000  Level Fort Worth Center
07:41PM 33.7958 -101.3000 92° East 492 566 37,000  Level Fort Worth Center
07:42PM 33.7981 -101.1550 89° East 487 560 37,000  Level Fort Worth Center
07:43PM 33.7928 -100.9750 92° East 487 560 37,000  Level Fort Worth Center
07:44PM 33.7892 -100.8100 91° East 487 560 37,000  Level Fort Worth Center
07:45PM 33.7850 -100.6472 92° East 487 560 37,000  Level Fort Worth Center
07:46PM 33.7808 -100.4822 92° East 492 566 37,000  Level Fort Worth Center
07:47PM 33.7767 -100.3147 92° East 492 566 37,000  Level Fort Worth Center
07:48PM 33.7553 -100.1517 99° East 498 573 37,000  Level Fort Worth Center
07:49PM 33.7336 -99.9861 99° East 503 579 37,000  Level Fort Worth Center
07:50PM 33.7158 -99.8381 98° East 503 579 37,000  Level Fort Worth Center
07:51PM 33.6939 -99.6728 99° East 503 579 37,000  Level Fort Worth Center
07:52PM 33.6717 -99.5075 99° East 503 579 37,000  Level Fort Worth Center
07:53PM 33.6514 -99.3422 98° East 498 573 37,000  Level Fort Worth Center
07:54PM 33.6267 -99.1772 100° East 503 579 37,000  Level Fort Worth Center
07:55PM 33.6019 -98.9972 99° East 498 573 37,000  Level Fort Worth Center
07:56PM 33.5789 -98.8322 99° East 504 580 37,000  Level Fort Worth Center
07:57PM 33.5575 -98.6772 99° East 511 588 37,000  Level Fort Worth Center
07:58PM 33.5342 -98.5100 99° East 511 588 37,000  Level Fort Worth Center
07:59PM 33.5064 -98.3278 100° East 504 580 37,000  Level Fort Worth Center
08:00PM 33.4844 -98.1606 99° East 510 587 37,000  Level Fort Worth Center
08:01PM 33.4583 -97.9936 101° East 510 587 37,000  Level Fort Worth Center
08:02PM 33.4358 -97.8442 100° East 505 581 37,000  Level Fort Worth Center
08:03PM 33.4072 -97.6547 100° East 505 581 37,000  Level Fort Worth Center
08:04PM 33.3822 -97.4906 100° East 505 581 37,000  Level Fort Worth Center
08:05PM 33.3594 -97.3364 100° East 505 581 37,000  Level Fort Worth Center
08:06PM 33.3361 -97.1697 99° East 510 587 37,000  Level Fort Worth Center
08:07PM 33.3086 -96.9833 100° East 510 587 37,000  Level Fort Worth Center
08:08PM 33.2850 -96.8319 101° East 510 587 37,000  Level Fort Worth Center
08:09PM 33.2547 -96.6483 101° East 510 587 37,000  Level Fort Worth Center
08:10PM 33.2286 -96.4747 100° East 521 600 37,000  Level Fort Worth Center
08:11PM 33.2000 -96.3061 101° East 521 600 37,000  Level Fort Worth Center
08:12PM 33.1839 -96.1350 96° East 520 598 37,000  Level Fort Worth Center
08:13PM 33.1694 -95.9642 96° East 520 598 37,000  Level Fort Worth Center
08:14PM 33.1547 -95.7858 96° East 520 598 37,000  Level Fort Worth Center
08:15PM 33.1419 -95.6122 95° East 525 604 37,000  Level Fort Worth Center
08:16PM 33.1247 -95.4389 97° East 525 604 37,000  Level Fort Worth Center
08:17PM 33.1094 -95.2633 96° East 525 604 37,000  Level Fort Worth Center
08:18PM 33.0936 -95.0875 96° East 531 611 37,000  Level Fort Worth Center
08:19PM 33.0778 -94.9119 96° East 531 611 37,000  Level Fort Worth Center
08:20PM 33.0617 -94.7339 96° East 536 617 37,100  Climbing Fort Worth Center
08:21PM 33.0453 -94.5561 96° East 536 617 37,000 -60 Descending Fort Worth Center
08:22PM 33.0308 -94.3831 96° East 536 617 37,000  Level Fort Worth Center
08:23PM 33.0139 -94.2128 97° East 530 610 37,000  Level Fort Worth Center
08:24PM 32.9969 -94.0375 97° East 530 610 37,000  Level Fort Worth Center
08:25PM 32.9817 -93.8647 96° East 525 604 37,000  Level Fort Worth Center
08:26PM 32.9642 -93.6897 97° East 525 604 37,000  Level Fort Worth Center
08:27PM 32.9461 -93.5147 97° East 530 610 37,000  Level Fort Worth Center
08:28PM 32.9303 -93.3397 96° East 530 610 37,000  Level Fort Worth Center
08:29PM 32.9117 -93.1597 97° East 535 616 37,000  Level Fort Worth Center
08:30PM 32.8911 -92.9828 98° East 540 621 37,000  Level Fort Worth Center
08:31PM 32.8761 -92.8006 96° East 545 627 37,000  Level Fort Worth Center
08:32PM 32.8567 -92.6186 97° East 545 627 37,000  Level Fort Worth Center
08:33PM 32.8353 -92.4417 98° East 545 627 37,000  Level Fort Worth Center
08:34PM 32.8178 -92.2672 97° East 545 627 37,000  Level Fort Worth Center
08:36PM 32.7631 -91.8642 99° East 552 635 37,000  Level Memphis Center
08:37PM 32.7464 -91.6911 96° East 540 621 37,000  Level Memphis Center
08:38PM 32.7250 -91.5181 98° East 534 615 37,000  Level Memphis Center
08:39PM 32.7056 -91.3425 97° East 534 615 37,000  Level Memphis Center
08:40PM 32.6861 -91.1719 98° East 529 609 37,000  Level Memphis Center
08:41PM 32.6725 -90.9939 95° East 529 609 37,000  Level Memphis Center
08:42PM 32.6586 -90.8186 95° East 534 615 37,000  Level Memphis Center
08:43PM 32.6467 -90.6436 95° East 534 615 37,000  Level Memphis Center
08:44PM 32.6300 -90.4658 96° East 540 621 37,000  Level Memphis Center
08:45PM 32.6175 -90.2956 95° East 540 621 37,000  Level Memphis Center
08:46PM 32.6028 -90.1231 96° East 540 621 37,000  Level Memphis Center
08:47PM 32.5878 -89.9506 96° East 535 616 37,000  Level Memphis Center
08:48PM 32.5767 -89.7953 95° East 530 610 37,000  Level Memphis Center
08:49PM 32.5611 -89.6228 96° East 530 610 37,000  Level Memphis Center
08:50PM 32.5453 -89.4481 96° East 530 610 37,000  Level Memphis Center
08:51PM 32.5314 -89.2756 95° East 530 610 37,000  Level Memphis Center
08:52PM 32.5319 -89.0981 90° East 525 604 37,000  Level Memphis Center
08:53PM 32.5383 -88.9231 87° East 531 611 37,000  Level Memphis Center
08:54PM 32.5444 -88.7406 88° East 536 617 37,000  Level Memphis Center
08:55PM 32.5525 -88.5631 87° East 536 617 37,100  Climbing Memphis Center
08:56PM 32.5603 -88.3856 87° East 536 617 37,100 -60 Level Memphis Center
08:58PM 32.5694 -88.0192 88° East 519 597 37,000 -60 Descending Atlanta Center
08:59PM 32.5731 -87.8394 89° East 526 605 37,000 -60 Level Atlanta Center
09:00PM 32.5781 -87.6697 88° East 526 605 36,900  Descending Atlanta Center
09:01PM 32.5872 -87.4975 86° East 526 605 37,000 60 Climbing Atlanta Center
09:02PM 32.6253 -87.3289 75° East 526 605 37,100  Climbing Atlanta Center
09:03PM 32.6672 -87.1625 73° East 526 605 37,000 -300 Descending Atlanta Center
09:04PM 32.7089 -86.9939 74° East 526 605 36,600 -660 Descending Atlanta Center
09:05PM 32.7503 -86.8297 73° East 526 605 35,700 -1,140 Descending Atlanta Center
09:06PM 32.7936 -86.6606 73° East 526 605 34,400 -2,100 Descending Atlanta Center
09:07PM 32.8369 -86.4889 73° East 532 612 31,500 -2,700 Descending Atlanta Center
09:08PM 32.8778 -86.3169 74° East 543 625 29,100 -2,400 Descending Atlanta Center
09:09PM 32.9206 -86.1472 73° East 537 618 26,800 -2,280 Descending Atlanta Center
09:10PM 32.9586 -85.9847 74° East 528 608 24,600 -2,100 Descending Atlanta Center
09:11PM 32.9942 -85.8369 74° East 498 573 22,600 -2,040 Descending Atlanta Center
09:12PM 33.0275 -85.6914 75° East 470 541 20,600 -1,980 Descending Atlanta Center
09:13PM 33.0606 -85.5558 74° East 450 518 18,700 -1,860 Descending Atlanta Center
09:14PM 33.0869 -85.4422 74° East 409 471 16,900 -1,860 Descending Atlanta Center
09:15PM 33.1175 -85.3186 74° East 386 444 15,000 -1,800 Descending Atlanta Center
09:16PM 33.1439 -85.2000 75° East 373 429 13,300 -1,380 Descending Atlanta Center
09:17PM 33.1700 -85.0886 74° East 359 413 12,300 -720 Descending Atlanta Center
09:18PM 33.2103 -84.9972 62° Northeast 321 369 11,900 -960 Descending Atlanta Center
09:19PM 33.2714 -84.9133 49° Northeast 307 353 10,400 -1,800 Descending Atlanta Center
09:20PM 33.3303 -84.8394 46° Northeast 307 353 8,400 -2,040 Descending Atlanta Center
09:21PM 33.4017 -84.7928 29° Northeast 289 333 6,400 -2,160 Descending Atlanta Center
09:22PM 33.4500 -84.7833 North 284 327 5,000 -1,920 Descending Atlanta TRACON
09:23PM 33.5167 -84.7667 12° North 261 300 3,300 -1,020 Descending Atlanta TRACON
09:24PM 33.5833 -84.7333 23° Northeast 209 241 3,000 -180 Descending Atlanta TRACON
09:25PM 33.6167 -84.6833 51° Northeast 184 212 3,000  Level Atlanta TRACON
09:26PM 33.6333 -84.6333 68° East 187 215 3,000  Level Atlanta TRACON
09:27PM 33.6333 -84.5833 90° East 181 208 3,000 -420 Level Atlanta TRACON
09:28PM 33.6333 -84.5167 90° East 170 196 2,300 -780 Descending Atlanta TRACON
09:29PM 33.6333 -84.4667 90° East 133 153 1,400 -840 Descending Atlanta TRACON